Time;durP1;ratioP1;P1;durP2;ratioP2;P2;SDS_P1;SDS_P2;PMS_P1;PMS_P2;Temp;Humidity;BMP_temperature;BMP_pressure;BME280_temperature;BME280_humidity;BME280_pressure;Samples;Min_cycle;Max_cycle;Signal;HPM_P1;HPM_P2
2023/12/24 00:01:10;;;;;;;2.20;1.00;;;;;;;9.38;77.87;97590.25;5020391;28;20029;-73
2023/12/24 00:03:36;;;;;;;1.17;0.80;;;;;;;9.23;78.06;97587.41;5016290;28;20029;-72
2023/12/24 00:06:02;;;;;;;1.35;1.00;;;;;;;9.33;77.95;97609.03;5017759;28;20029;-72
2023/12/24 00:08:31;;;;;;;0.90;0.80;;;;;;;9.34;78.26;97599.09;5023650;28;20037;-72
2023/12/24 00:10:56;;;;;;;1.02;0.90;;;;;;;9.39;78.00;97608.03;5032160;28;20112;-71
2023/12/24 00:13:22;;;;;;;1.42;1.00;;;;;;;9.28;78.62;97597.41;5013816;28;20057;-71
2023/12/24 00:15:48;;;;;;;1.30;1.15;;;;;;;9.36;79.05;97608.53;5014573;28;20029;-71
2023/12/24 00:18:13;;;;;;;1.13;1.00;;;;;;;9.29;79.66;97615.94;5039857;28;20041;-71
2023/12/24 00:20:39;;;;;;;1.75;0.93;;;;;;;9.23;79.44;97608.91;5042051;28;20017;-72
2023/12/24 00:23:08;;;;;;;1.42;1.00;;;;;;;9.30;79.35;97606.84;5048612;28;20045;-73
2023/12/24 00:25:37;;;;;;;1.30;1.00;;;;;;;9.34;79.14;97601.75;5016530;28;20033;-72
2023/12/24 00:28:04;;;;;;;1.52;1.00;;;;;;;9.24;79.28;97610.50;5029173;28;20037;-72
2023/12/24 00:30:29;;;;;;;1.25;1.10;;;;;;;9.33;79.64;97598.28;5021993;28;20436;-72
2023/12/24 00:33:00;;;;;;;1.05;1.00;;;;;;;9.29;79.54;97599.84;5022355;28;20401;-72
2023/12/24 00:35:26;;;;;;;1.08;0.98;;;;;;;9.38;79.48;97622.50;5016208;28;20032;-72
2023/12/24 00:37:52;;;;;;;1.25;1.05;;;;;;;9.27;80.00;97620.78;5045732;28;20029;-73
2023/12/24 00:40:18;;;;;;;1.30;1.13;;;;;;;9.21;80.24;97594.91;5011592;28;20039;-73
2023/12/24 00:42:44;;;;;;;3.05;1.50;;;;;;;9.25;80.78;97611.34;5009265;28;20147;-74
2023/12/24 00:45:10;;;;;;;3.05;1.20;;;;;;;9.29;80.15;97605.22;5016370;28;20153;-74
2023/12/24 00:47:37;;;;;;;2.08;1.67;;;;;;;9.30;80.44;97604.16;4998258;28;20441;-73
2023/12/24 00:50:03;;;;;;;2.17;1.40;;;;;;;9.25;80.61;97593.34;5016329;28;20601;-73
2023/12/24 00:52:29;;;;;;;2.13;1.45;;;;;;;9.15;79.62;97603.16;5005530;28;20021;-74
2023/12/24 00:54:54;;;;;;;2.75;1.30;;;;;;;9.22;79.66;97583.09;5015358;28;20049;-74
2023/12/24 00:57:19;;;;;;;1.75;1.20;;;;;;;9.36;79.68;97605.03;5025350;28;20029;-74
2023/12/24 00:59:45;;;;;;;2.10;1.10;;;;;;;9.22;79.30;97604.59;5023622;28;20397;-74
2023/12/24 01:02:10;;;;;;;1.85;1.20;;;;;;;9.38;79.16;97611.75;5010672;28;20116;-74
2023/12/24 01:04:35;;;;;;;4.03;1.45;;;;;;;9.30;79.33;97614.91;4999616;28;20103;-74
2023/12/24 01:07:01;;;;;;;1.95;1.10;;;;;;;9.34;78.98;97621.41;5027976;28;20398;-72
2023/12/24 01:09:26;;;;;;;2.20;1.27;;;;;;;9.35;78.74;97612.28;5031249;28;20135;-73
2023/12/24 01:11:53;;;;;;;2.38;1.00;;;;;;;9.33;78.31;97603.66;5009209;28;20025;-73
2023/12/24 01:14:19;;;;;;;2.40;1.10;;;;;;;9.37;78.09;97588.66;4995072;28;20557;-74
2023/12/24 01:16:44;;;;;;;2.70;1.30;;;;;;;9.43;78.03;97603.75;5016424;28;20079;-73
2023/12/24 01:19:10;;;;;;;3.55;1.15;;;;;;;9.36;78.02;97592.41;5017760;28;20044;-73
2023/12/24 01:21:35;;;;;;;1.90;1.27;;;;;;;9.41;78.02;97595.16;5014905;28;20104;-73
2023/12/24 01:24:00;;;;;;;2.22;1.00;;;;;;;9.46;78.61;97608.66;5034148;28;20038;-74
2023/12/24 01:26:26;;;;;;;2.38;1.10;;;;;;;9.45;77.59;97612.38;5027802;28;20068;-73
2023/12/24 01:28:51;;;;;;;2.60;0.98;;;;;;;9.39;78.44;97604.53;5011947;28;20033;-72
2023/12/24 01:31:17;;;;;;;2.63;1.08;;;;;;;9.37;78.22;97599.41;5012197;28;20472;-73
2023/12/24 01:33:42;;;;;;;2.10;1.15;;;;;;;9.40;78.38;97606.97;5012025;28;20482;-73
2023/12/24 01:36:08;;;;;;;1.65;1.25;;;;;;;9.25;78.86;97600.59;5027341;28;20060;-73
2023/12/24 01:38:33;;;;;;;2.15;1.30;;;;;;;9.19;78.98;97589.00;5011917;28;20514;-73
2023/12/24 01:40:59;;;;;;;1.30;1.20;;;;;;;9.23;78.91;97616.16;5030508;28;20030;-73
2023/12/24 01:43:25;;;;;;;2.00;1.52;;;;;;;9.36;79.34;97624.63;5024052;28;20079;-73
2023/12/24 01:45:51;;;;;;;3.10;1.50;;;;;;;9.28;79.55;97617.03;5018254;28;20493;-72
2023/12/24 01:48:17;;;;;;;1.83;1.38;;;;;;;9.28;80.37;97606.28;5013636;28;20199;-72
2023/12/24 01:50:44;;;;;;;2.20;1.58;;;;;;;9.20;80.10;97613.94;5008690;28;20017;-72
2023/12/24 01:53:10;;;;;;;3.03;1.85;;;;;;;9.23;80.86;97625.03;5001026;28;20033;-72
2023/12/24 01:55:35;;;;;;;2.00;1.77;;;;;;;9.19;80.86;97613.16;5028230;28;20040;-72
2023/12/24 01:58:01;;;;;;;3.38;1.98;;;;;;;9.13;81.30;97614.16;5014720;28;20029;-72
2023/12/24 02:00:26;;;;;;;2.70;1.80;;;;;;;9.17;81.86;97620.63;5026355;28;20023;-72
2023/12/24 02:02:52;;;;;;;2.50;1.95;;;;;;;9.16;81.90;97613.66;5014646;28;20116;-72
2023/12/24 02:05:18;;;;;;;3.40;1.90;;;;;;;9.11;82.27;97616.28;5029729;28;20528;-72
2023/12/24 02:07:44;;;;;;;2.80;2.05;;;;;;;9.15;81.99;97606.66;5011571;28;20037;-73
2023/12/24 02:10:10;;;;;;;3.35;1.80;;;;;;;9.07;82.70;97609.78;5015204;28;20021;-73
2023/12/24 02:12:36;;;;;;;2.13;1.80;;;;;;;9.02;82.27;97602.47;5020477;28;20039;-73
2023/12/24 02:15:02;;;;;;;2.22;1.88;;;;;;;9.09;82.60;97606.84;5008573;28;20022;-72
2023/12/24 02:17:28;;;;;;;2.47;2.13;;;;;;;9.05;82.81;97590.41;5013727;28;20044;-73
2023/12/24 02:19:54;;;;;;;3.42;2.33;;;;;;;9.15;82.34;97617.38;5022072;28;20017;-72
2023/12/24 02:22:19;;;;;;;3.28;2.17;;;;;;;9.09;82.57;97610.34;5014616;28;20034;-72
2023/12/24 02:24:44;;;;;;;2.33;1.70;;;;;;;9.05;82.95;97610.00;5009368;28;20053;-72
2023/12/24 02:27:31;;;;;;;3.67;2.00;;;;;;;9.07;82.39;97603.59;5018328;28;20362;-72
2023/12/24 02:30:02;;;;;;;2.72;1.90;;;;;;;9.02;82.40;97597.09;5033484;28;20037;-72
2023/12/24 02:32:28;;;;;;;4.82;2.35;;;;;;;9.10;82.57;97593.19;5030946;28;20037;-72
2023/12/24 02:34:53;;;;;;;3.22;1.98;;;;;;;9.01;82.54;97589.28;5040783;28;20013;-72
2023/12/24 02:37:19;;;;;;;3.47;2.15;;;;;;;9.04;82.37;97578.03;5026112;28;20111;-71
2023/12/24 02:39:45;;;;;;;2.92;1.90;;;;;;;9.16;82.13;97602.91;5008683;28;20033;-72
2023/12/24 02:42:11;;;;;;;3.53;2.10;;;;;;;9.10;82.42;97592.34;5004581;28;20417;-72
2023/12/24 02:44:36;;;;;;;2.97;2.00;;;;;;;9.08;82.31;97589.91;5015174;28;20021;-72
2023/12/24 02:47:02;;;;;;;2.67;1.83;;;;;;;9.11;82.55;97604.72;5007457;28;20127;-72
2023/12/24 02:49:27;;;;;;;2.10;1.90;;;;;;;9.14;82.31;97602.34;4995384;28;20032;-72
2023/12/24 02:51:53;;;;;;;2.35;1.88;;;;;;;8.96;82.43;97575.81;5027242;28;20049;-71
2023/12/24 02:54:18;;;;;;;2.42;1.85;;;;;;;9.11;82.68;97602.84;5011497;28;20033;-72
2023/12/24 02:56:43;;;;;;;4.47;2.08;;;;;;;9.07;82.34;97590.97;5047958;28;20044;-71
2023/12/24 02:59:09;;;;;;;3.83;2.00;;;;;;;9.05;82.82;97595.78;5023222;28;20032;-72
2023/12/24 03:01:34;;;;;;;2.40;2.00;;;;;;;9.05;83.02;97601.16;5023291;28;20025;-72
2023/12/24 03:03:59;;;;;;;4.90;2.30;;;;;;;9.07;82.93;97587.47;5001464;28;20049;-72
2023/12/24 03:06:25;;;;;;;4.57;1.98;;;;;;;9.12;82.97;97590.22;5020002;28;20033;-71
2023/12/24 03:08:50;;;;;;;3.65;2.00;;;;;;;9.01;82.49;97589.28;5015420;28;20413;-71
2023/12/24 03:11:16;;;;;;;2.03;1.85;;;;;;;9.08;82.57;97608.69;5010386;28;20171;-71
2023/12/24 03:13:41;;;;;;;2.95;2.22;;;;;;;9.15;82.68;97606.66;5008380;28;20393;-71
2023/12/24 03:16:06;;;;;;;3.20;1.70;;;;;;;9.02;82.95;97601.66;5042020;28;20041;-72
2023/12/24 03:18:32;;;;;;;1.77;1.67;;;;;;;9.10;83.04;97603.09;5026001;28;20057;-71
2023/12/24 03:21:00;;;;;;;1.98;1.77;;;;;;;9.20;82.88;97608.59;5014909;28;20032;-71
2023/12/24 03:23:26;;;;;;;2.45;1.70;;;;;;;9.19;82.71;97615.03;5025594;28;20092;-71
2023/12/24 03:25:53;;;;;;;2.70;1.92;;;;;;;9.22;82.84;97617.22;5013490;28;20029;-71
2023/12/24 03:28:18;;;;;;;3.50;2.00;;;;;;;9.15;82.84;97601.28;5025339;28;20032;-72
2023/12/24 03:30:44;;;;;;;2.13;1.88;;;;;;;9.04;83.82;97580.72;5030022;28;20029;-72
2023/12/24 03:33:10;;;;;;;2.20;1.67;;;;;;;9.07;83.50;97576.72;5006436;28;20124;-71
2023/12/24 03:35:36;;;;;;;2.45;1.90;;;;;;;9.14;83.68;97583.53;5041511;28;20107;-71
2023/12/24 03:38:01;;;;;;;2.40;1.92;;;;;;;8.97;83.71;97580.09;5016440;28;20112;-73
2023/12/24 03:40:28;;;;;;;1.92;1.77;;;;;;;9.14;83.87;97610.41;5018633;28;20025;-71
2023/12/24 03:42:53;;;;;;;2.95;1.75;;;;;;;9.10;84.16;97597.72;5014212;28;20081;-71
2023/12/24 03:45:19;;;;;;;3.58;1.95;;;;;;;9.09;83.88;97585.34;5027215;28;20408;-71
2023/12/24 03:47:44;;;;;;;2.10;1.90;;;;;;;9.08;84.47;97599.84;5022986;28;20025;-71
2023/12/24 03:50:10;;;;;;;2.40;1.65;;;;;;;9.00;84.57;97576.91;5021379;28;20060;-71
2023/12/24 03:52:35;;;;;;;2.28;1.90;;;;;;;8.95;84.76;97590.28;5014153;28;20036;-71
2023/12/24 03:55:00;;;;;;;2.70;2.10;;;;;;;9.05;84.65;97577.00;5014814;28;20092;-71
2023/12/24 03:57:26;;;;;;;2.10;1.90;;;;;;;9.00;85.03;97569.69;5038225;28;20017;-71
2023/12/24 03:59:51;;;;;;;2.20;2.00;;;;;;;9.07;85.19;97571.34;5025465;28;20032;-71
2023/12/24 04:02:17;;;;;;;2.42;2.22;;;;;;;9.02;85.50;97574.78;5016242;28;20033;-71
2023/12/24 04:04:48;;;;;;;2.88;2.22;;;;;;;8.98;85.68;97568.31;5024084;28;20044;-72
2023/12/24 04:07:15;;;;;;;4.05;2.10;;;;;;;8.99;85.44;97591.41;5010675;28;20388;-71
2023/12/24 04:09:41;;;;;;;2.72;2.20;;;;;;;9.02;86.17;97588.22;5033772;28;20109;-72
2023/12/24 04:12:08;;;;;;;2.35;2.15;;;;;;;8.95;85.95;97580.34;5038711;28;20034;-71
2023/12/24 04:14:36;;;;;;;2.55;2.22;;;;;;;8.99;85.52;97567.22;5026020;28;20017;-72
2023/12/24 04:17:02;;;;;;;4.55;2.47;;;;;;;9.04;85.90;97594.16;5023642;28;20033;-70
2023/12/24 04:19:27;;;;;;;3.53;2.30;;;;;;;8.93;86.41;97597.78;5014105;28;20029;-71
2023/12/24 04:21:53;;;;;;;2.83;2.45;;;;;;;8.93;86.33;97582.47;5026294;28;20033;-71
2023/12/24 04:24:18;;;;;;;2.80;2.30;;;;;;;8.83;86.72;97570.78;5022137;28;20061;-71
2023/12/24 04:26:44;;;;;;;2.25;2.05;;;;;;;8.95;86.34;97574.97;5035521;28;20625;-72
2023/12/24 04:29:09;;;;;;;4.47;4.07;;;;;;;8.94;86.10;97583.28;5014768;28;20016;-71
2023/12/24 04:31:39;;;;;;;2.53;2.10;;;;;;;9.02;85.81;97569.44;5011853;28;20029;-71
2023/12/24 04:34:06;;;;;;;2.83;2.53;;;;;;;8.75;85.71;97549.75;5000613;28;20053;-72
2023/12/24 04:36:33;;;;;;;4.25;2.30;;;;;;;8.85;86.10;97563.28;5002214;28;20028;-71
2023/12/24 04:38:58;;;;;;;2.72;2.20;;;;;;;8.79;86.15;97542.81;5025395;28;20405;-72
2023/12/24 04:41:23;;;;;;;2.53;2.22;;;;;;;8.79;86.20;97537.44;5019774;28;20021;-72
2023/12/24 04:43:49;;;;;;;3.00;2.40;;;;;;;8.83;86.08;97535.88;5011509;28;20116;-71
2023/12/24 04:46:14;;;;;;;3.78;2.17;;;;;;;8.78;86.44;97538.50;5019496;28;20029;-71
2023/12/24 04:48:41;;;;;;;4.40;2.38;;;;;;;8.86;86.52;97538.06;5030939;28;20036;-71
2023/12/24 04:51:07;;;;;;;2.38;2.13;;;;;;;8.80;86.78;97545.25;5034990;28;20029;-71
2023/12/24 04:53:33;;;;;;;3.42;2.20;;;;;;;8.77;86.38;97523.47;5024379;28;20067;-72
2023/12/24 04:55:58;;;;;;;3.15;1.92;;;;;;;8.79;86.60;97548.19;5014474;28;20060;-72
2023/12/24 04:58:24;;;;;;;2.25;1.98;;;;;;;8.77;86.53;97544.94;5016171;28;20037;-73
2023/12/24 05:00:50;;;;;;;2.83;2.20;;;;;;;8.80;86.96;97555.16;5012701;28;20060;-72
2023/12/24 05:03:17;;;;;;;1.88;1.77;;;;;;;8.68;86.94;97551.81;5023206;28;20057;-71
2023/12/24 05:05:42;;;;;;;3.05;2.58;;;;;;;8.73;87.63;97546.47;5015931;28;20044;-71
2023/12/24 05:08:09;;;;;;;2.03;1.75;;;;;;;8.78;86.78;97543.84;5015796;28;20061;-71
2023/12/24 05:10:34;;;;;;;2.00;1.73;;;;;;;8.66;87.26;97554.72;5015771;28;20115;-71
2023/12/24 05:13:00;;;;;;;2.05;1.90;;;;;;;8.73;86.85;97546.47;5033310;28;20386;-71
2023/12/24 05:15:26;;;;;;;45.83;36.58;;;;;;;8.57;87.45;97529.38;5016936;28;20037;-72
2023/12/24 05:17:52;;;;;;;23.27;20.77;;;;;;;8.63;87.21;97539.13;5033952;28;20104;-71
2023/12/24 05:20:17;;;;;;;3.28;2.97;;;;;;;8.65;87.31;97552.28;5021743;28;20613;-72
2023/12/24 05:22:42;;;;;;;7.78;7.18;;;;;;;8.61;87.50;97537.75;5006725;28;20045;-72
2023/12/24 05:25:08;;;;;;;1.95;1.70;;;;;;;8.69;87.49;97564.16;5017874;28;20026;-72
2023/12/24 05:27:34;;;;;;;2.33;1.70;;;;;;;8.61;87.34;97567.28;5042507;28;20222;-72
2023/12/24 05:29:59;;;;;;;2.30;1.70;;;;;;;8.64;87.02;97572.13;5047674;28;20393;-71
2023/12/24 05:32:25;;;;;;;2.20;1.83;;;;;;;8.67;87.03;97571.63;5028511;28;20037;-72
2023/12/24 05:34:50;;;;;;;1.83;1.73;;;;;;;8.68;86.78;97562.53;5040032;28;20088;-71
2023/12/24 05:37:15;;;;;;;2.33;2.13;;;;;;;8.61;86.22;97568.06;5016166;28;20037;-72
2023/12/24 05:39:44;;;;;;;2.90;1.80;;;;;;;8.65;85.95;97566.53;5023495;28;20401;-72
2023/12/24 05:42:09;;;;;;;2.30;2.10;;;;;;;8.68;85.98;97573.28;5048925;28;20496;-72
2023/12/24 05:44:35;;;;;;;2.42;2.22;;;;;;;8.64;86.29;97550.66;5017071;28;20034;-72
2023/12/24 05:47:00;;;;;;;2.38;2.17;;;;;;;8.61;85.37;97569.94;5022137;28;20065;-72
2023/12/24 05:49:27;;;;;;;2.35;2.13;;;;;;;8.66;85.63;97565.44;5027731;28;20166;-73
2023/12/24 05:51:53;;;;;;;3.42;2.40;;;;;;;8.63;86.19;97581.25;5035714;28;20029;-72
2023/12/24 05:54:18;;;;;;;4.03;2.42;;;;;;;8.65;86.07;97595.22;5028476;28;20051;-71
2023/12/24 05:56:44;;;;;;;2.75;2.28;;;;;;;8.64;86.66;97596.28;5030963;28;20124;-71
2023/12/24 05:59:09;;;;;;;3.05;2.67;;;;;;;8.57;87.12;97614.41;5025479;28;20029;-71
2023/12/24 06:01:34;;;;;;;2.42;2.20;;;;;;;8.62;87.56;97598.41;5047547;28;20321;-72
2023/12/24 06:04:00;;;;;;;2.70;2.50;;;;;;;8.46;88.49;97583.13;5017641;28;20057;-71
2023/12/24 06:06:25;;;;;;;3.00;2.80;;;;;;;8.45;89.04;97600.31;5032601;28;20044;-71
2023/12/24 06:08:50;;;;;;;3.40;2.92;;;;;;;8.26;89.95;97597.84;5027459;28;20029;-71
2023/12/24 06:11:16;;;;;;;3.53;2.80;;;;;;;8.33;90.93;97605.75;5033641;28;20512;-70
2023/12/24 06:13:42;;;;;;;3.15;2.95;;;;;;;8.29;91.55;97602.75;5030995;28;20029;-72
2023/12/24 06:16:07;;;;;;;3.10;2.90;;;;;;;8.24;91.97;97605.31;5019096;28;20033;-71
2023/12/24 06:18:33;;;;;;;3.58;3.28;;;;;;;8.22;91.69;97602.06;5020716;28;20474;-71
2023/12/24 06:20:58;;;;;;;3.17;2.88;;;;;;;8.17;92.67;97593.09;5025700;28;20033;-72
2023/12/24 06:23:24;;;;;;;3.90;3.50;;;;;;;8.22;92.44;97603.91;5030276;28;20029;-71
2023/12/24 06:25:49;;;;;;;3.58;3.30;;;;;;;8.14;93.14;97591.75;5038894;28;20109;-71
2023/12/24 06:28:14;;;;;;;4.00;3.60;;;;;;;8.23;93.31;97602.88;5030904;28;20394;-72
2023/12/24 06:30:40;;;;;;;4.35;3.15;;;;;;;8.10;93.36;97579.03;5014610;28;20030;-72
2023/12/24 06:33:05;;;;;;;4.07;3.75;;;;;;;8.22;92.85;97607.41;5038970;28;20032;-71
2023/12/24 06:35:31;;;;;;;3.45;3.08;;;;;;;8.17;93.80;97606.50;5014232;28;20116;-72
2023/12/24 06:37:57;;;;;;;3.47;3.17;;;;;;;8.11;93.95;97605.63;5007113;28;20075;-71
2023/12/24 06:40:22;;;;;;;4.03;3.70;;;;;;;7.99;94.25;97574.56;5014494;28;20029;-71
2023/12/24 06:42:48;;;;;;;3.90;3.60;;;;;;;8.14;94.32;97599.81;5013824;28;20434;-71
2023/12/24 06:45:14;;;;;;;3.15;2.95;;;;;;;8.14;94.24;97612.38;5034170;28;20034;-71
2023/12/24 06:47:39;;;;;;;3.50;3.20;;;;;;;8.11;94.37;97602.97;5018415;28;20021;-71
2023/12/24 06:50:05;;;;;;;4.63;3.55;;;;;;;8.17;94.17;97607.34;5015759;28;20117;-71
2023/12/24 06:52:32;;;;;;;3.70;3.45;;;;;;;8.16;93.77;97603.03;5025503;28;20032;-72
2023/12/24 06:54:58;;;;;;;2.92;2.72;;;;;;;8.02;94.65;97607.09;5038930;28;20068;-72
2023/12/24 06:57:23;;;;;;;3.25;3.05;;;;;;;7.97;94.79;97588.25;5023192;28;20056;-70
2023/12/24 06:59:49;;;;;;;4.10;3.70;;;;;;;8.14;94.23;97583.72;5031803;28;20065;-72
2023/12/24 07:02:15;;;;;;;3.70;3.40;;;;;;;7.97;94.42;97574.84;5027904;28;20123;-72
2023/12/24 07:04:40;;;;;;;3.92;3.60;;;;;;;8.07;94.43;97583.06;5025460;28;20036;-73
2023/12/24 07:07:06;;;;;;;3.60;3.40;;;;;;;8.05;94.68;97582.47;5043510;28;20160;-72
2023/12/24 07:09:31;;;;;;;3.55;3.35;;;;;;;8.13;94.78;97598.16;5046872;28;20037;-72
2023/12/24 07:11:57;;;;;;;4.10;3.80;;;;;;;8.04;94.60;97596.94;5013980;28;20057;-72
2023/12/24 07:14:22;;;;;;;3.97;3.67;;;;;;;8.15;94.79;97605.94;5020440;28;20453;-72
2023/12/24 07:16:48;;;;;;;4.25;3.95;;;;;;;8.15;95.13;97596.03;5015625;28;20033;-72
2023/12/24 07:19:13;;;;;;;5.28;4.88;;;;;;;8.21;95.13;97611.16;5013850;28;20034;-72
2023/12/24 07:21:38;;;;;;;4.32;3.92;;;;;;;8.18;95.27;97616.19;5013339;28;20029;-72
2023/12/24 07:24:04;;;;;;;4.80;4.40;;;;;;;8.11;95.00;97600.28;5037145;28;20033;-71
2023/12/24 07:26:29;;;;;;;4.78;4.30;;;;;;;8.13;95.01;97603.53;5032042;28;20029;-72
2023/12/24 07:28:54;;;;;;;5.00;4.60;;;;;;;8.26;94.56;97608.59;5031160;28;20033;-72
2023/12/24 07:31:20;;;;;;;4.00;3.70;;;;;;;8.16;94.80;97603.03;5012640;28;20026;-71
2023/12/24 07:33:45;;;;;;;15.82;13.95;;;;;;;8.25;94.84;97606.94;5037736;28;20457;-72
2023/12/24 07:36:11;;;;;;;33.22;24.38;;;;;;;8.17;95.08;97607.34;5031106;28;20029;-71
2023/12/24 07:38:36;;;;;;;13.27;10.55;;;;;;;8.10;95.11;97609.38;4999207;28;20047;-72
2023/12/24 07:41:03;;;;;;;60.22;35.92;;;;;;;8.16;95.67;97605.72;5017984;28;20025;-72
2023/12/24 07:43:29;;;;;;;36.80;23.40;;;;;;;8.17;95.49;97604.66;5013404;28;20374;-72
2023/12/24 07:45:54;;;;;;;31.88;22.40;;;;;;;8.09;95.72;97594.34;5031241;28;20037;-72
2023/12/24 07:48:19;;;;;;;6.70;6.00;;;;;;;7.99;95.62;97590.66;5034278;28;20041;-72
2023/12/24 07:50:45;;;;;;;11.15;9.05;;;;;;;8.19;96.00;97604.44;5035017;28;20100;-71
2023/12/24 07:53:10;;;;;;;8.38;7.57;;;;;;;8.20;95.63;97598.00;5017872;28;20033;-71
2023/12/24 07:55:36;;;;;;;8.98;8.05;;;;;;;8.19;95.44;97594.50;5043976;28;20430;-72
2023/12/24 07:58:01;;;;;;;8.65;7.85;;;;;;;8.08;95.72;97573.94;5034873;28;20044;-71
2023/12/24 08:00:27;;;;;;;6.30;5.80;;;;;;;8.18;95.50;97603.59;4995196;28;20029;-72
2023/12/24 08:02:52;;;;;;;8.18;7.40;;;;;;;8.20;95.44;97606.84;5030600;28;20036;-72
2023/12/24 08:05:17;;;;;;;5.70;5.20;;;;;;;8.18;95.29;97605.47;5002310;28;20538;-71
2023/12/24 08:07:43;;;;;;;7.05;6.47;;;;;;;8.21;96.03;97597.75;5030882;28;20039;-72
2023/12/24 08:10:08;;;;;;;7.00;6.40;;;;;;;8.24;95.35;97597.25;5016210;28;20485;-72
2023/12/24 08:12:34;;;;;;;7.57;7.03;;;;;;;8.14;95.08;97578.34;5030464;28;20033;-72
2023/12/24 08:14:59;;;;;;;8.70;7.78;;;;;;;8.22;95.52;97585.16;5034172;28;20053;-72
2023/12/24 08:17:25;;;;;;;4.32;4.03;;;;;;;8.07;95.26;97560.78;5024817;28;20040;-72
2023/12/24 08:19:50;;;;;;;6.30;5.70;;;;;;;8.23;95.37;97590.28;4998893;28;20561;-72
2023/12/24 08:22:16;;;;;;;7.93;7.22;;;;;;;8.21;95.15;97578.97;5036494;28;20104;-72
2023/12/24 08:24:41;;;;;;;5.32;4.93;;;;;;;8.26;95.72;97597.06;5036471;28;20058;-72
2023/12/24 08:27:06;;;;;;;6.65;6.05;;;;;;;8.26;95.72;97581.75;5015363;28;20517;-71
2023/12/24 08:29:32;;;;;;;5.90;5.30;;;;;;;8.21;95.27;97581.66;5028058;28;20045;-72
2023/12/24 08:31:57;;;;;;;4.70;3.83;;;;;;;8.27;95.44;97594.13;5022638;28;20521;-72
2023/12/24 08:34:23;;;;;;;3.95;3.58;;;;;;;8.29;95.24;97581.28;5030724;28;20033;-72
2023/12/24 08:36:49;;;;;;;4.20;3.90;;;;;;;8.25;95.50;97580.13;5016357;28;20033;-72
2023/12/24 08:39:14;;;;;;;3.40;3.20;;;;;;;8.15;95.73;97569.22;5014838;28;20053;-72
2023/12/24 08:41:40;;;;;;;2.83;2.72;;;;;;;8.17;95.81;97587.75;5032737;28;20112;-72
2023/12/24 08:44:05;;;;;;;3.20;3.00;;;;;;;8.19;95.43;97591.81;5016542;28;20100;-71
2023/12/24 08:46:30;;;;;;;4.18;3.88;;;;;;;8.26;94.91;97580.97;5019337;28;20045;-72
2023/12/24 08:48:56;;;;;;;5.00;4.60;;;;;;;8.32;95.03;97579.97;5015981;28;20053;-72
2023/12/24 08:51:21;;;;;;;3.10;2.80;;;;;;;8.26;95.06;97571.03;5029619;28;20519;-71
2023/12/24 08:53:46;;;;;;;2.72;2.53;;;;;;;8.35;95.00;97595.59;5027705;28;20029;-72
2023/12/24 08:56:13;;;;;;;2.30;2.20;;;;;;;8.27;96.09;97599.50;5020454;28;20037;-72
2023/12/24 08:58:38;;;;;;;2.25;2.15;;;;;;;8.27;95.14;97591.44;5040794;28;20033;-72
2023/12/24 09:01:04;;;;;;;2.58;2.47;;;;;;;8.27;95.64;97596.81;5033750;28;20033;-72
2023/12/24 09:03:29;;;;;;;2.38;2.28;;;;;;;8.18;95.38;97584.84;5023898;28;20084;-71
2023/12/24 09:05:55;;;;;;;3.10;2.90;;;;;;;8.26;95.06;97592.50;5024171;28;20066;-73
2023/12/24 09:08:21;;;;;;;2.55;2.42;;;;;;;8.38;94.65;97599.66;5012838;28;20034;-73
2023/12/24 09:10:46;;;;;;;2.55;2.45;;;;;;;8.31;95.43;97595.25;5016874;28;20042;-71
2023/12/24 09:13:11;;;;;;;2.63;2.53;;;;;;;8.34;95.23;97604.69;5032220;28;20028;-71
2023/12/24 09:15:37;;;;;;;2.50;2.40;;;;;;;8.23;95.33;97592.97;4999202;28;20041;-72
2023/12/24 09:18:03;;;;;;;2.53;2.42;;;;;;;8.40;95.24;97600.22;5038013;28;20021;-71
2023/12/24 09:20:28;;;;;;;2.83;2.63;;;;;;;8.30;95.10;97588.28;5020538;28;20142;-71
2023/12/24 09:22:53;;;;;;;2.70;2.60;;;;;;;8.33;94.85;97587.00;5026925;28;20028;-72
2023/12/24 09:25:19;;;;;;;2.97;2.83;;;;;;;8.32;95.11;97580.81;5015976;28;20543;-71
2023/12/24 09:27:44;;;;;;;2.72;2.63;;;;;;;8.41;94.61;97604.50;5035875;28;20036;-71
2023/12/24 09:30:10;;;;;;;2.47;2.38;;;;;;;8.50;95.12;97613.78;5025964;28;20120;-72
2023/12/24 09:32:36;;;;;;;2.60;2.50;;;;;;;8.45;94.57;97603.78;5020903;28;20164;-72
2023/12/24 09:35:01;;;;;;;2.30;2.20;;;;;;;8.50;93.91;97603.03;5024926;28;20081;-71
2023/12/24 09:37:26;;;;;;;2.20;2.10;;;;;;;8.50;94.07;97603.03;5022484;28;20108;-71
2023/12/24 09:39:52;;;;;;;2.20;2.10;;;;;;;8.56;93.89;97602.09;5007404;28;20112;-72
2023/12/24 09:42:18;;;;;;;2.38;2.28;;;;;;;8.50;93.75;97592.31;5022530;28;20112;-72
2023/12/24 09:44:44;;;;;;;2.20;1.98;;;;;;;8.48;94.14;97589.06;5034655;28;20069;-72
2023/12/24 09:47:09;;;;;;;2.25;2.15;;;;;;;8.66;93.12;97607.59;5034757;28;20022;-72
2023/12/24 09:49:35;;;;;;;2.17;2.08;;;;;;;8.63;93.26;97613.47;5032876;28;20092;-72
2023/12/24 09:52:01;;;;;;;2.15;2.05;;;;;;;8.64;93.50;97605.16;5026761;28;20430;-72
2023/12/24 09:54:26;;;;;;;2.15;2.05;;;;;;;8.70;93.42;97603.38;5028205;28;20511;-72
2023/12/24 09:56:52;;;;;;;2.20;2.10;;;;;;;8.61;93.34;97588.75;5025042;28;20060;-73
2023/12/24 09:59:17;;;;;;;2.15;2.05;;;;;;;8.64;93.40;97585.53;5024321;28;20052;-71
2023/12/24 10:01:46;;;;;;;1.90;1.80;;;;;;;8.72;92.32;97564.47;5026455;28;20028;-72
2023/12/24 10:04:13;;;;;;;2.08;1.98;;;;;;;8.85;91.88;97595.50;5041126;28;20088;-73
2023/12/24 10:06:55;;;;;;;2.17;1.95;;;;;;;8.81;91.82;97589.84;5029532;28;20532;-72
2023/12/24 10:09:22;;;;;;;2.03;1.92;;;;;;;8.78;92.17;97589.50;5034822;28;20091;-72
2023/12/24 10:12:03;;;;;;;1.98;1.88;;;;;;;8.86;92.02;97581.84;5007509;28;20127;-71
2023/12/24 10:14:28;;;;;;;2.53;2.33;;;;;;;8.87;92.55;97582.63;4998592;28;20037;-73
2023/12/24 10:16:53;;;;;;;2.03;1.92;;;;;;;8.84;91.67;97583.97;5025264;28;20052;-72
2023/12/24 10:19:23;;;;;;;2.10;2.00;;;;;;;8.90;91.95;97587.53;5026240;28;20040;-72
2023/12/24 10:22:18;;;;;;;1.95;1.85;;;;;;;8.81;91.63;97578.28;5042504;28;20504;-72
2023/12/24 10:24:43;;;;;;;1.67;1.58;;;;;;;8.85;91.84;97565.97;5002679;28;20045;-72
2023/12/24 10:27:11;;;;;;;1.98;1.88;;;;;;;8.85;91.84;97568.66;5039009;28;20048;-72
2023/12/24 10:29:38;;;;;;;1.90;1.80;;;;;;;8.94;91.48;97572.53;5030951;28;20041;-73
2023/12/24 10:32:03;;;;;;;2.08;1.98;;;;;;;9.02;91.21;97580.16;5016094;28;20028;-73
2023/12/24 10:34:30;;;;;;;1.70;1.60;;;;;;;9.01;91.37;97573.16;5044912;28;20405;-73
2023/12/24 10:36:58;;;;;;;1.60;1.50;;;;;;;8.98;91.23;97546.81;5030897;28;20403;-72
2023/12/24 10:39:24;;;;;;;1.35;1.30;;;;;;;8.91;91.30;97548.88;4998122;28;20147;-72
2023/12/24 10:41:55;;;;;;;1.63;1.52;;;;;;;9.02;91.08;97545.25;5030346;28;20029;-72
2023/12/24 10:44:22;;;;;;;1.50;1.40;;;;;;;8.96;90.97;97532.84;5036956;28;20044;-73
2023/12/24 10:46:47;;;;;;;1.75;1.65;;;;;;;9.06;90.70;97538.31;5021578;28;20029;-73
2023/12/24 10:49:13;;;;;;;6.05;5.45;;;;;;;9.04;90.81;97529.69;5022611;28;20390;-72
2023/12/24 10:51:39;;;;;;;1.85;1.75;;;;;;;9.06;90.50;97530.25;5015788;28;20033;-72
2023/12/24 10:54:06;;;;;;;2.80;2.60;;;;;;;9.11;91.01;97541.06;5040430;28;20108;-72
2023/12/24 10:56:41;;;;;;;1.40;1.40;;;;;;;9.14;90.84;97548.63;5035495;28;20024;-72
2023/12/24 10:59:14;;;;;;;1.47;1.47;;;;;;;9.11;90.52;97535.69;5021686;28;20037;-73
2023/12/24 11:01:39;;;;;;;3.50;3.30;;;;;;;9.10;90.05;97523.34;5035796;28;20068;-72
2023/12/24 11:04:05;;;;;;;1.60;1.30;;;;;;;9.10;90.28;97528.72;5023815;28;20083;-72
2023/12/24 11:06:36;;;;;;;1.80;1.70;;;;;;;9.24;90.10;97529.91;5020936;28;20693;-72
2023/12/24 11:09:29;;;;;;;1.33;1.23;;;;;;;9.07;89.80;97529.22;5022982;28;20523;-72
2023/12/24 11:11:55;;;;;;;1.50;1.40;;;;;;;9.16;90.79;97522.31;5010943;28;20068;-72
2023/12/24 11:14:40;;;;;;;1.45;1.35;;;;;;;9.11;90.03;97521.44;5020773;28;20037;-72
2023/12/24 11:17:08;;;;;;;1.40;1.40;;;;;;;9.14;90.13;97513.72;5007122;28;20512;-73
2023/12/24 11:19:35;;;;;;;1.58;1.48;;;;;;;9.02;89.89;97494.22;5013946;28;20021;-72
2023/12/24 11:22:09;;;;;;;1.60;1.50;;;;;;;9.13;90.03;97516.63;5027152;28;20095;-72
2023/12/24 11:24:41;;;;;;;1.55;1.50;;;;;;;9.19;90.45;97521.81;5009116;28;20401;-72
2023/12/24 11:27:08;;;;;;;1.50;1.40;;;;;;;9.17;90.48;97518.56;4988224;28;20038;-71
2023/12/24 11:29:43;;;;;;;1.30;1.30;;;;;;;9.20;89.88;97511.88;5011511;28;20112;-72
2023/12/24 11:32:24;;;;;;;1.48;1.45;;;;;;;9.19;90.14;97513.78;5011196;28;20038;-72
2023/12/24 11:34:50;;;;;;;2.17;1.60;;;;;;;9.16;90.27;97511.56;5031217;28;20029;-72
2023/12/24 11:37:26;;;;;;;2.38;2.10;;;;;;;9.26;89.66;97509.00;5014457;28;20466;-72